Time;durP1;ratioP1;P1;durP2;ratioP2;P2;SDS_P1;SDS_P2;PMS_P1;PMS_P2;Temp;Humidity;BMP_temperature;BMP_pressure;BME280_temperature;BME280_humidity;BME280_pressure;Samples;Min_cycle;Max_cycle;Signal;HPM_P1;HPM_P2
2021/08/09 00:01:10;;;;;;;1.23;0.70;;;;;;;18.85;71.40;99635.63;4956647;28;20320;-92
2021/08/09 00:03:37;;;;;;;0.90;0.90;;;;;;;18.84;71.20;99634.03;4957065;28;20284;-93
2021/08/09 00:06:04;;;;;;;1.17;1.10;;;;;;;18.79;71.35;99647.63;4956226;28;20243;-92
2021/08/09 00:08:31;;;;;;;1.13;1.03;;;;;;;18.77;71.52;99644.34;4941260;28;20229;-93
2021/08/09 00:10:58;;;;;;;1.47;1.20;;;;;;;18.83;71.13;99662.25;4956817;28;20712;-92
2021/08/09 00:13:25;;;;;;;0.80;0.80;;;;;;;18.78;71.30;99660.38;4941230;28;20229;-93
2021/08/09 00:15:51;;;;;;;1.60;1.10;;;;;;;18.76;71.31;99667.13;4971285;28;20863;-93
2021/08/09 00:18:18;;;;;;;1.10;0.97;;;;;;;18.74;71.49;99655.75;4955248;28;20217;-91
2021/08/09 00:20:45;;;;;;;0.93;0.93;;;;;;;18.78;71.38;99679.38;4972984;28;20304;-92
2021/08/09 00:23:12;;;;;;;1.10;1.00;;;;;;;18.66;71.42;99667.16;4972133;28;20236;-92
2021/08/09 00:25:39;;;;;;;2.07;1.00;;;;;;;18.75;70.71;99671.78;4972486;28;20287;-92
2021/08/09 00:28:05;;;;;;;1.57;1.13;;;;;;;18.72;70.53;99671.47;4956107;28;20229;-92
2021/08/09 00:30:32;;;;;;;1.30;1.10;;;;;;;18.75;71.00;99669.06;4956437;28;20252;-92
2021/08/09 00:32:59;;;;;;;1.00;0.90;;;;;;;18.73;71.09;99663.06;4956174;28;20283;-91
2021/08/09 00:35:26;;;;;;;0.97;0.97;;;;;;;18.73;70.85;99668.50;4972735;28;20287;-92
2021/08/09 00:37:53;;;;;;;1.10;1.00;;;;;;;18.74;71.12;99663.91;4956618;28;20229;-91
2021/08/09 00:40:21;;;;;;;0.80;0.80;;;;;;;18.82;70.53;99664.16;4955808;28;20241;-92
2021/08/09 00:43:07;;;;;;;0.90;0.80;;;;;;;18.75;70.35;99647.34;5094422;27;20582;-92
2021/08/09 00:45:35;;;;;;;1.10;0.80;;;;;;;18.82;69.84;99658.72;5055060;28;20311;-91
2021/08/09 00:48:03;;;;;;;1.00;0.80;;;;;;;18.78;69.74;99638.66;5038674;28;20228;-91
2021/08/09 00:50:31;;;;;;;1.30;0.80;;;;;;;18.79;70.13;99658.47;5055651;28;20278;-91
2021/08/09 00:52:59;;;;;;;1.33;1.00;;;;;;;18.77;70.16;99653.31;5054957;28;20645;-91
2021/08/09 00:55:27;;;;;;;1.43;1.00;;;;;;;18.70;70.68;99655.50;5055270;28;20315;-92
2021/08/09 00:57:53;;;;;;;1.00;0.80;;;;;;;18.63;70.54;99644.09;5054776;28;20221;-92
2021/08/09 01:00:26;;;;;;;2.10;0.77;;;;;;;18.67;70.31;99652.47;5072254;28;20275;-92
2021/08/09 01:02:54;;;;;;;0.93;0.80;;;;;;;18.64;70.22;99645.72;5054702;28;20232;-92
2021/08/09 01:05:21;;;;;;;2.23;0.70;;;;;;;18.66;70.19;99651.69;5054492;28;20221;-91
2021/08/09 01:08:21;;;;;;;1.00;0.90;;;;;;;18.63;70.02;99657.66;5055554;28;20283;-91
2021/08/09 01:11:07;;;;;;;2.87;0.83;;;;;;;18.62;70.26;99666.88;5071394;28;20551;-92
2021/08/09 01:13:59;;;;;;;0.80;0.80;;;;;;;18.58;70.27;99673.91;5070888;28;20566;-91
2021/08/09 01:16:37;;;;;;;1.03;0.70;;;;;;;18.55;70.11;99666.34;5055226;28;20220;-91
2021/08/09 01:19:40;;;;;;;0.80;0.80;;;;;;;18.52;70.06;99672.28;5071026;28;20536;-92
2021/08/09 01:22:14;;;;;;;1.43;0.90;;;;;;;18.55;70.01;99668.22;5021121;28;20627;-92
2021/08/09 01:25:03;;;;;;;2.30;1.00;;;;;;;18.53;69.93;99667.63;5054462;28;20636;-91
2021/08/09 01:27:32;;;;;;;0.70;0.70;;;;;;;18.47;69.88;99653.28;5071107;28;20243;-91
2021/08/09 01:30:06;;;;;;;1.03;0.60;;;;;;;18.55;69.10;99660.09;5054522;28;20235;-91
2021/08/09 01:32:36;;;;;;;0.90;0.57;;;;;;;18.55;69.07;99654.66;5070729;28;20221;-91
2021/08/09 01:35:07;;;;;;;1.03;0.83;;;;;;;18.48;68.90;99661.13;5070790;28;20229;-91
2021/08/09 01:37:38;;;;;;;0.60;0.60;;;;;;;18.54;68.56;99656.56;5054915;28;20229;-92
2021/08/09 01:40:06;;;;;;;1.63;0.80;;;;;;;18.63;68.28;99659.53;5053790;28;20236;-91
2021/08/09 01:42:40;;;;;;;0.90;0.60;;;;;;;18.55;68.55;99663.63;5053960;28;20302;-92
2021/08/09 01:45:08;;;;;;;0.70;0.70;;;;;;;18.49;68.61;99662.78;5054075;28;20247;-90
2021/08/09 01:47:35;;;;;;;1.27;0.77;;;;;;;18.55;68.56;99679.09;5053912;28;20225;-92
2021/08/09 01:50:03;;;;;;;0.73;0.70;;;;;;;18.58;68.63;99684.78;5053282;28;20233;-90
2021/08/09 01:52:30;;;;;;;1.33;0.77;;;;;;;18.54;68.50;99677.44;5051003;28;20226;-91
2021/08/09 01:54:59;;;;;;;1.00;0.70;;;;;;;18.49;68.57;99683.66;5040462;28;20721;-90
2021/08/09 01:57:27;;;;;;;0.90;0.80;;;;;;;18.51;68.68;99688.81;5024330;28;20230;-91
2021/08/09 01:59:55;;;;;;;1.00;0.73;;;;;;;18.55;68.60;99684.50;5057131;28;20644;-91
2021/08/09 02:02:29;;;;;;;1.23;0.80;;;;;;;18.58;68.69;99681.25;5039828;28;20542;-91
2021/08/09 02:05:25;;;;;;;1.53;0.90;;;;;;;18.62;68.53;99685.03;5040415;28;20225;-91
2021/08/09 02:07:58;;;;;;;0.70;0.70;;;;;;;18.60;68.34;99677.19;5041483;28;20271;-91
2021/08/09 02:10:27;;;;;;;1.40;0.70;;;;;;;18.66;67.53;99678.84;5039585;28;20275;-90
2021/08/09 02:13:07;;;;;;;1.97;0.90;;;;;;;18.64;67.56;99691.84;5041081;28;20225;-91
2021/08/09 02:15:42;;;;;;;2.47;0.90;;;;;;;18.60;67.58;99679.91;5056550;28;20248;-90
2021/08/09 02:18:20;;;;;;;0.87;0.80;;;;;;;18.64;67.70;99683.69;5040331;28;20584;-91
2021/08/09 02:20:48;;;;;;;1.20;0.90;;;;;;;18.67;67.65;99690.47;5040267;28;20267;-91
2021/08/09 02:23:18;;;;;;;1.23;0.80;;;;;;;18.60;68.25;99698.09;5073211;28;20275;-91
2021/08/09 02:25:48;;;;;;;1.40;0.80;;;;;;;18.54;69.03;99685.59;5040211;28;20524;-91
2021/08/09 02:28:19;;;;;;;2.30;0.90;;;;;;;18.52;69.42;99704.84;5039531;28;20229;-90
2021/08/09 02:30:50;;;;;;;1.13;0.80;;;;;;;18.49;69.55;99700.75;5040142;28;20295;-91
2021/08/09 02:33:19;;;;;;;1.43;0.70;;;;;;;18.32;69.71;99683.09;5056489;28;20240;-90
2021/08/09 02:35:46;;;;;;;1.30;0.70;;;;;;;18.31;69.34;99687.69;5039610;28;20226;-90
2021/08/09 02:38:14;;;;;;;1.70;0.90;;;;;;;18.31;69.30;99690.41;5039274;28;20225;-90
2021/08/09 02:40:42;;;;;;;1.03;0.80;;;;;;;18.29;69.26;99705.34;5039482;28;20256;-90
2021/08/09 02:43:10;;;;;;;1.23;0.80;;;;;;;18.30;69.05;99712.38;5039329;28;20229;-90
2021/08/09 02:45:37;;;;;;;0.70;0.70;;;;;;;18.31;69.05;99725.69;5039781;28;20253;-91
2021/08/09 02:48:05;;;;;;;1.90;0.87;;;;;;;18.27;69.95;99724.59;5038992;28;20237;-90
2021/08/09 02:50:35;;;;;;;1.73;1.10;;;;;;;18.16;70.02;99713.97;5056132;28;20221;-90
2021/08/09 02:53:02;;;;;;;1.00;0.90;;;;;;;18.15;70.18;99731.34;5039432;28;20234;-90
2021/08/09 02:55:30;;;;;;;0.83;0.80;;;;;;;18.01;70.85;99726.38;5039137;28;20226;-89
2021/08/09 02:57:59;;;;;;;1.43;1.00;;;;;;;18.00;70.51;99729.38;5039370;28;20539;-90
2021/08/09 03:00:25;;;;;;;1.03;0.90;;;;;;;17.92;70.40;99727.16;5022806;28;20225;-90
2021/08/09 03:02:53;;;;;;;1.43;0.90;;;;;;;17.88;71.21;99728.78;5039162;28;20310;-90
2021/08/09 03:05:20;;;;;;;1.10;0.90;;;;;;;17.76;70.88;99729.00;5038514;28;20222;-90
2021/08/09 03:07:47;;;;;;;1.67;1.10;;;;;;;17.79;71.31;99750.16;5039326;28;20236;-90
2021/08/09 03:10:15;;;;;;;1.40;0.90;;;;;;;17.79;71.41;99752.84;5038719;28;20282;-90
2021/08/09 03:12:42;;;;;;;1.83;1.00;;;;;;;17.79;71.48;99757.47;5039467;28;20236;-90
2021/08/09 03:15:09;;;;;;;0.90;0.83;;;;;;;17.84;71.06;99755.59;5038928;28;20236;-90
2021/08/09 03:17:37;;;;;;;0.87;0.80;;;;;;;17.88;70.80;99759.41;5039066;28;20333;-90
2021/08/09 03:20:04;;;;;;;1.27;1.00;;;;;;;17.94;70.71;99754.81;5038594;28;20233;-90
2021/08/09 03:22:31;;;;;;;2.30;0.90;;;;;;;17.97;70.45;99759.72;5039046;28;20225;-90
2021/08/09 03:24:58;;;;;;;1.00;0.90;;;;;;;18.04;69.69;99744.84;5055266;28;20232;-90
2021/08/09 03:27:25;;;;;;;0.80;0.80;;;;;;;18.00;69.59;99732.09;5022392;28;20229;-90
2021/08/09 03:29:52;;;;;;;2.40;0.97;;;;;;;18.09;69.17;99740.53;5038717;28;20263;-90
2021/08/09 03:32:22;;;;;;;1.73;0.80;;;;;;;18.14;68.99;99738.66;5038391;28;20724;-89
2021/08/09 03:34:49;;;;;;;0.93;0.80;;;;;;;18.12;68.85;99731.84;5038548;28;20224;-89
2021/08/09 03:37:17;;;;;;;0.80;0.80;;;;;;;18.15;68.97;99737.53;5055065;28;20222;-90
2021/08/09 03:39:43;;;;;;;1.07;0.77;;;;;;;18.10;68.99;99740.28;5055082;28;20237;-91
2021/08/09 03:42:10;;;;;;;0.90;0.80;;;;;;;18.12;68.90;99757.06;5054444;28;20308;-90
2021/08/09 03:44:37;;;;;;;1.47;0.80;;;;;;;18.15;68.75;99759.25;5038335;28;20308;-90
2021/08/09 03:47:04;;;;;;;1.33;0.97;;;;;;;18.19;68.30;99768.50;5054863;28;20233;-90
2021/08/09 03:49:31;;;;;;;1.40;0.90;;;;;;;18.25;68.46;99780.16;5037851;28;20229;-90
2021/08/09 03:51:58;;;;;;;1.20;0.90;;;;;;;18.22;68.00;99775.28;5038587;28;20308;-90
2021/08/09 03:54:24;;;;;;;0.83;0.83;;;;;;;18.27;68.19;99784.25;5054527;28;20231;-89
2021/08/09 03:56:51;;;;;;;1.23;0.80;;;;;;;18.33;68.63;99790.50;5038552;28;20591;-90
2021/08/09 03:59:18;;;;;;;5.20;0.93;;;;;;;18.22;67.55;99791.53;5054628;28;20271;-90
2021/08/09 04:01:48;;;;;;;1.47;1.00;;;;;;;17.86;68.73;99769.72;5038139;28;20249;-90
2021/08/09 04:04:16;;;;;;;1.97;1.03;;;;;;;18.22;67.83;99796.97;5022040;28;20307;-90
2021/08/09 04:06:44;;;;;;;1.50;1.20;;;;;;;18.44;67.67;99805.72;5054472;28;20232;-89
2021/08/09 04:09:11;;;;;;;1.27;1.07;;;;;;;18.39;67.51;99800.28;5038164;28;20225;-90
2021/08/09 04:11:38;;;;;;;0.90;0.80;;;;;;;18.40;68.23;99818.19;5037916;28;20291;-90
2021/08/09 04:14:05;;;;;;;1.67;0.93;;;;;;;18.38;68.10;99814.94;5037548;28;20228;-90
2021/08/09 04:16:33;;;;;;;0.90;0.90;;;;;;;18.22;68.48;99796.97;5037986;28;20311;-90
2021/08/09 04:19:00;;;;;;;1.10;1.00;;;;;;;18.23;68.90;99810.28;5021892;28;20529;-90
2021/08/09 04:21:27;;;;;;;2.07;0.80;;;;;;;18.21;68.92;99808.88;5038299;28;20229;-90
2021/08/09 04:23:53;;;;;;;1.23;0.90;;;;;;;18.27;69.28;99811.38;5037689;28;20240;-90
2021/08/09 04:26:23;;;;;;;1.17;1.00;;;;;;;18.28;69.43;99807.59;5053945;28;20237;-89
2021/08/09 04:28:50;;;;;;;1.13;1.00;;;;;;;18.43;68.74;99823.88;5037914;28;20629;-90
2021/08/09 04:31:18;;;;;;;1.27;0.90;;;;;;;18.49;69.11;99820.13;5037910;28;20229;-89
2021/08/09 04:33:48;;;;;;;3.43;1.77;;;;;;;18.63;69.02;99825.88;5038038;28;20233;-90
2021/08/09 04:36:15;;;;;;;2.27;1.00;;;;;;;18.74;68.94;99832.97;5037526;28;20631;-88
2021/08/09 04:38:42;;;;;;;2.47;1.10;;;;;;;18.80;68.98;99825.66;5038296;28;20609;-90
2021/08/09 04:41:11;;;;;;;1.83;1.10;;;;;;;18.82;69.18;99823.47;5037944;28;20589;-89
2021/08/09 04:43:41;;;;;;;1.20;1.10;;;;;;;18.97;69.47;99836.28;5038683;28;20237;-89
2021/08/09 04:46:11;;;;;;;5.27;1.73;;;;;;;19.11;68.68;99835.47;5038032;28;20225;-89
2021/08/09 04:48:39;;;;;;;3.13;1.47;;;;;;;19.14;68.04;99828.69;5038509;28;20225;-90
2021/08/09 04:51:06;;;;;;;2.77;1.47;;;;;;;19.27;68.53;99845.25;5037798;28;20226;-91
2021/08/09 04:53:33;;;;;;;1.90;1.40;;;;;;;19.36;68.23;99816.44;5038204;28;20226;-90
2021/08/09 04:56:00;;;;;;;1.73;1.33;;;;;;;19.61;67.46;99825.72;5038158;28;20714;-89
2021/08/09 04:58:32;;;;;;;2.03;1.30;;;;;;;19.59;67.62;99817.03;5071252;28;20256;-90
2021/08/09 05:01:00;;;;;;;1.40;1.30;;;;;;;19.81;67.28;99828.41;5054899;28;20318;-90
2021/08/09 05:03:27;;;;;;;1.47;1.30;;;;;;;20.10;66.64;99837.59;5037962;28;20225;-89
2021/08/09 05:05:54;;;;;;;1.80;1.40;;;;;;;20.13;66.82;99834.28;5037957;28;20230;-89
2021/08/09 05:08:25;;;;;;;3.50;1.60;;;;;;;20.27;66.09;99845.41;5037676;28;20231;-88
2021/08/09 05:10:52;;;;;;;2.30;1.40;;;;;;;20.41;65.52;99856.53;5021886;28;20700;-89
2021/08/09 05:13:20;;;;;;;2.33;1.47;;;;;;;20.41;64.95;99851.91;5054157;28;20225;-89
2021/08/09 05:15:47;;;;;;;1.90;1.30;;;;;;;20.31;64.16;99862.00;5037561;28;20244;-88
2021/08/09 05:18:15;;;;;;;1.53;1.20;;;;;;;20.52;65.09;99861.66;5020952;28;20225;-89
2021/08/09 05:20:41;;;;;;;1.63;1.30;;;;;;;20.68;64.85;99854.22;5037453;28;20228;-89
2021/08/09 05:23:08;;;;;;;4.23;1.43;;;;;;;20.72;64.40;99854.50;5037518;28;20229;-89
2021/08/09 05:25:35;;;;;;;3.80;1.50;;;;;;;20.88;64.27;99862.28;5021283;28;20233;-89
2021/08/09 05:28:02;;;;;;;2.07;1.53;;;;;;;21.21;63.03;99865.38;5038161;28;20312;-88
2021/08/09 05:30:29;;;;;;;3.23;1.70;;;;;;;21.22;62.81;99856.91;5041412;28;20287;-88
2021/08/09 05:32:56;;;;;;;3.37;1.40;;;;;;;21.32;62.07;99858.75;5041325;28;20291;-89
2021/08/09 05:35:23;;;;;;;1.87;1.40;;;;;;;21.66;61.65;99862.25;5057932;28;20229;-88
2021/08/09 05:37:50;;;;;;;1.50;1.27;;;;;;;21.80;59.13;99856.94;5041363;28;20625;-88
2021/08/09 05:40:17;;;;;;;3.33;1.67;;;;;;;21.52;59.20;99853.13;5024734;28;20253;-88
2021/08/09 05:42:48;;;;;;;2.60;1.77;;;;;;;21.61;60.17;99856.84;5024751;28;20700;-87
2021/08/09 05:45:17;;;;;;;1.77;1.67;;;;;;;21.53;60.61;99849.31;5041337;28;20229;-89
2021/08/09 05:47:44;;;;;;;2.60;1.90;;;;;;;21.62;60.24;99849.50;5040898;28;20321;-89
2021/08/09 05:50:12;;;;;;;3.33;1.63;;;;;;;21.60;60.53;99848.97;5040540;28;20569;-89
2021/08/09 05:52:54;;;;;;;3.37;1.60;;;;;;;21.59;60.59;99847.34;5043250;28;20232;-88
2021/08/09 05:55:23;;;;;;;1.90;1.60;;;;;;;21.51;61.05;99846.03;5040911;28;20229;-88
2021/08/09 05:57:51;;;;;;;2.07;1.43;;;;;;;21.95;61.07;99848.66;5041043;28;20225;-89
2021/08/09 06:00:21;;;;;;;2.03;1.53;;;;;;;22.37;59.75;99845.16;5040858;28;20248;-88
2021/08/09 06:02:53;;;;;;;1.87;1.43;;;;;;;22.64;58.59;99850.00;5025693;28;20229;-89
2021/08/09 06:05:30;;;;;;;2.60;1.57;;;;;;;22.10;58.57;99839.50;5057178;28;20225;-89
2021/08/09 06:07:59;;;;;;;2.07;1.63;;;;;;;22.52;58.65;99849.63;5057261;28;20539;-87
2021/08/09 06:10:26;;;;;;;1.80;1.70;;;;;;;22.53;58.86;99840.34;5040532;28;20629;-88
2021/08/09 06:12:56;;;;;;;3.03;1.70;;;;;;;22.70;59.39;99852.41;5040609;28;20259;-88
2021/08/09 06:15:22;;;;;;;1.80;1.53;;;;;;;22.72;59.17;99847.44;5024187;28;20276;-86
2021/08/09 06:17:49;;;;;;;2.00;1.50;;;;;;;22.78;57.71;99862.69;5040309;28;20229;-88
2021/08/09 06:20:17;;;;;;;4.60;1.50;;;;;;;22.76;57.04;99867.63;5056148;28;20338;-87
2021/08/09 06:22:44;;;;;;;2.10;1.50;;;;;;;22.82;56.77;99874.63;5040159;28;20222;-87
2021/08/09 06:25:11;;;;;;;1.40;1.30;;;;;;;22.81;56.30;99869.47;5040157;28;20260;-87
2021/08/09 06:27:40;;;;;;;2.20;1.70;;;;;;;22.75;56.72;99862.47;5040098;28;20263;-87
2021/08/09 06:30:07;;;;;;;4.20;1.53;;;;;;;22.92;57.56;99865.50;5056557;28;20564;-87
2021/08/09 06:32:34;;;;;;;2.80;2.23;;;;;;;22.87;56.60;99864.75;5040001;28;20221;-85
2021/08/09 06:35:04;;;;;;;2.00;1.80;;;;;;;22.77;57.55;99865.69;5023636;28;20224;-88
2021/08/09 06:37:31;;;;;;;1.87;1.77;;;;;;;22.92;56.86;99857.28;5039681;28;20228;-86
2021/08/09 06:39:58;;;;;;;1.93;1.47;;;;;;;23.01;56.09;99860.16;5056383;28;20227;-87
2021/08/09 06:42:25;;;;;;;2.93;1.57;;;;;;;23.34;55.23;99858.28;5039067;28;20293;-87
2021/08/09 06:45:08;;;;;;;1.77;1.40;;;;;;;23.81;54.08;99874.47;5027747;28;20231;-87
2021/08/09 06:47:35;;;;;;;2.63;1.37;;;;;;;23.68;52.36;99873.34;5039905;28;20235;-87
2021/08/09 06:50:03;;;;;;;1.83;1.50;;;;;;;24.05;52.19;99871.56;5039211;28;20286;-87
2021/08/09 06:52:33;;;;;;;1.50;1.33;;;;;;;24.47;50.84;99875.97;5039674;28;20577;-87
2021/08/09 06:55:00;;;;;;;2.03;1.70;;;;;;;25.01;50.03;99877.06;5039572;28;20636;-88
2021/08/09 06:57:31;;;;;;;2.00;1.20;;;;;;;25.05;49.20;99870.66;5039949;28;20289;-87
2021/08/09 07:00:00;;;;;;;2.83;1.50;;;;;;;25.33;49.43;99861.22;5039422;28;20236;-86
2021/08/09 07:02:28;;;;;;;1.40;1.30;;;;;;;25.46;49.46;99850.47;5039177;28;20235;-87
2021/08/09 07:04:54;;;;;;;3.60;1.33;;;;;;;25.87;49.33;99870.28;5039719;28;20505;-87
2021/08/09 07:07:21;;;;;;;2.80;1.60;;;;;;;26.35;47.99;99875.06;5055372;28;20231;-87
2021/08/09 07:09:48;;;;;;;2.50;1.10;;;;;;;26.58;47.28;99865.59;5055642;28;20550;-87
2021/08/09 07:12:15;;;;;;;2.20;1.42;;;;;;;26.90;46.64;99867.13;5038558;28;20245;-87
2021/08/09 07:14:42;;;;;;;1.63;1.30;;;;;;;26.99;45.55;99859.69;5038898;28;20282;-87
2021/08/09 07:17:09;;;;;;;1.67;1.50;;;;;;;26.94;46.00;99863.41;5038990;28;20230;-87
2021/08/09 07:19:37;;;;;;;1.98;1.50;;;;;;;26.45;47.17;99853.59;5038828;28;20228;-87
2021/08/09 07:22:05;;;;;;;2.65;1.50;;;;;;;26.62;45.70;99844.56;5038727;28;20240;-86
2021/08/09 07:24:35;;;;;;;1.60;1.50;;;;;;;26.40;46.27;99844.69;5023047;28;20225;-86
2021/08/09 07:27:03;;;;;;;2.45;1.40;;;;;;;26.15;46.13;99846.19;5039257;28;20229;-86
2021/08/09 07:29:31;;;;;;;3.17;1.40;;;;;;;25.95;46.97;99863.19;5038935;28;20233;-87
2021/08/09 07:32:00;;;;;;;1.92;1.30;;;;;;;25.66;47.63;99860.97;5038920;28;20317;-86
2021/08/09 07:34:27;;;;;;;2.45;1.10;;;;;;;25.72;48.35;99859.69;5038600;28;20312;-86
2021/08/09 07:36:54;;;;;;;3.83;1.48;;;;;;;25.85;47.87;99861.53;5038662;28;20225;-86
2021/08/09 07:39:21;;;;;;;3.58;1.70;;;;;;;26.37;47.04;99861.78;5038552;28;20263;-87
2021/08/09 07:41:48;;;;;;;1.52;1.20;;;;;;;26.37;45.81;99857.09;5038183;28;20237;-86
2021/08/09 07:44:15;;;;;;;2.53;1.20;;;;;;;26.42;45.64;99847.91;5052083;28;20218;-87
2021/08/09 07:46:41;;;;;;;2.03;1.20;;;;;;;26.73;44.81;99843.97;5034743;28;20287;-87
2021/08/09 07:49:08;;;;;;;1.98;1.08;;;;;;;26.73;44.96;99840.41;5053633;28;20317;-86
2021/08/09 07:51:35;;;;;;;1.50;1.10;;;;;;;26.78;44.74;99848.50;5037575;28;20234;-87
2021/08/09 07:54:02;;;;;;;2.33;1.10;;;;;;;26.05;45.27;99835.47;5037906;28;20222;-86
2021/08/09 07:56:29;;;;;;;3.13;1.25;;;;;;;26.08;45.12;99843.09;5021815;28;20229;-86
2021/08/09 07:58:57;;;;;;;2.05;1.45;;;;;;;26.09;43.70;99833.72;5053863;28;20312;-84
2021/08/09 08:01:24;;;;;;;2.28;1.10;;;;;;;26.03;43.26;99838.56;5037785;28;20306;-87
2021/08/09 08:03:51;;;;;;;1.92;1.30;;;;;;;25.76;42.55;99834.06;5053796;28;20257;-87
2021/08/09 08:06:18;;;;;;;1.60;1.27;;;;;;;25.64;44.10;99846.75;5021135;28;20248;-87
2021/08/09 08:08:46;;;;;;;2.20;1.17;;;;;;;25.04;46.13;99849.03;5037336;28;20331;-86
2021/08/09 08:11:13;;;;;;;1.83;1.00;;;;;;;25.18;45.40;99845.09;5036046;28;20229;-87
2021/08/09 08:13:40;;;;;;;1.10;1.00;;;;;;;25.57;46.44;99854.63;5036813;28;20279;-88
2021/08/09 08:16:07;;;;;;;1.25;1.10;;;;;;;25.75;44.72;99832.47;5037635;28;20312;-88
2021/08/09 08:18:35;;;;;;;3.35;1.30;;;;;;;26.31;43.85;99858.41;5020766;28;20225;-87
2021/08/09 08:21:02;;;;;;;1.73;1.20;;;;;;;25.88;44.08;99843.66;5037419;28;20300;-87
2021/08/09 08:23:29;;;;;;;2.08;1.20;;;;;;;26.26;43.28;99858.53;5021183;28;20224;-86
2021/08/09 08:25:57;;;;;;;2.25;1.10;;;;;;;25.70;43.81;99848.25;5037113;28;20233;-87
2021/08/09 08:28:24;;;;;;;1.17;1.00;;;;;;;25.86;44.30;99843.94;5036670;28;20304;-87
2021/08/09 08:30:52;;;;;;;1.42;1.10;;;;;;;26.27;44.11;99854.66;5037121;28;20589;-87
2021/08/09 08:33:20;;;;;;;1.38;1.02;;;;;;;25.81;42.91;99847.66;5020352;28;20694;-87
2021/08/09 08:35:47;;;;;;;1.75;1.10;;;;;;;25.78;43.32;99858.44;5052059;28;20553;-87
2021/08/09 08:38:15;;;;;;;1.33;1.10;;;;;;;25.86;43.05;99863.16;5051951;28;20225;-87
2021/08/09 08:40:47;;;;;;;3.63;1.25;;;;;;;25.74;43.21;99854.72;5036391;28;20234;-86
2021/08/09 08:43:23;;;;;;;1.20;1.10;;;;;;;25.80;43.07;99867.97;5037164;28;20225;-87
2021/08/09 08:46:04;;;;;;;2.00;1.17;;;;;;;25.62;43.18;99863.50;5021401;28;20235;-87
2021/08/09 08:48:34;;;;;;;2.35;1.30;;;;;;;25.72;43.50;99854.22;5020223;28;20230;-93
2021/08/09 08:51:23;;;;;;;1.20;1.10;;;;;;;26.05;44.20;99861.00;5025437;28;20229;-95
2021/08/09 08:53:51;;;;;;;2.08;1.30;;;;;;;25.51;45.69;99859.38;5020533;28;20236;-95
2021/08/09 08:56:18;;;;;;;3.35;1.27;;;;;;;25.86;45.09;99849.44;5019305;28;20313;-95
2021/08/09 08:58:45;;;;;;;2.60;1.20;;;;;;;26.32;43.34;99859.22;5037692;28;20225;-94
2021/08/09 09:01:31;;;;;;;1.65;1.30;;;;;;;26.04;43.92;99844.84;5020381;28;20221;-93
2021/08/09 09:03:58;;;;;;;2.28;1.27;;;;;;;26.33;44.72;99861.63;5033843;28;20218;-91
2021/08/09 09:06:25;;;;;;;1.80;1.17;;;;;;;25.76;44.16;99845.03;5041324;28;20692;-93
2021/08/09 09:08:52;;;;;;;1.65;1.20;;;;;;;26.00;44.06;99852.91;5025821;28;20222;-95
2021/08/09 09:11:22;;;;;;;2.20;1.15;;;;;;;26.36;42.98;99852.78;5042156;28;20283;-94
2021/08/09 09:13:57;;;;;;;2.63;1.20;;;;;;;26.36;42.13;99846.47;5058482;28;20568;-94
2021/08/09 09:16:25;;;;;;;2.55;1.30;;;;;;;26.58;42.04;99849.91;5041329;28;20236;-95
2021/08/09 09:18:55;;;;;;;1.52;1.10;;;;;;;26.82;41.51;99852.22;5032285;28;20229;-93
2021/08/09 09:21:25;;;;;;;1.65;1.20;;;;;;;26.96;41.24;99849.34;5037605;28;20250;-93
2021/08/09 09:24:12;;;;;;;2.13;1.10;;;;;;;26.42;40.66;99826.75;5039416;28;20314;-95
2021/08/09 09:26:41;;;;;;;1.20;1.10;;;;;;;26.56;40.21;99832.91;5016388;28;20246;-90
2021/08/09 09:29:13;;;;;;;2.20;1.10;;;;;;;26.00;39.14;99830.94;5022421;28;20367;-94
2021/08/09 09:31:41;;;;;;;4.10;1.38;;;;;;;26.19;40.30;99830.69;5038161;28;20232;-91
2021/08/09 09:34:10;;;;;;;1.38;1.10;;;;;;;26.26;41.43;99811.84;5023206;28;20309;-93
2021/08/09 09:36:47;;;;;;;1.15;1.05;;;;;;;26.83;41.99;99829.06;5013802;28;20229;-93
2021/08/09 09:39:37;;;;;;;2.42;1.20;;;;;;;26.59;41.78;99828.75;5069220;28;20257;-94
2021/08/09 09:42:12;;;;;;;1.40;1.05;;;;;;;26.81;40.75;99836.03;5039693;28;20358;-92
2021/08/09 09:44:40;;;;;;;3.00;1.17;;;;;;;26.88;41.48;99820.69;5024200;28;20283;-94
2021/08/09 09:47:17;;;;;;;1.65;1.10;;;;;;;27.00;38.62;99823.63;5024395;28;20265;-94
2021/08/09 09:49:43;;;;;;;2.25;1.20;;;;;;;27.04;40.82;99813.59;5023840;28;20294;-93
2021/08/09 09:52:30;;;;;;;2.47;1.20;;;;;;;26.49;41.83;99820.78;5023478;28;20233;-91
2021/08/09 09:54:59;;;;;;;1.80;1.02;;;;;;;26.82;38.34;99812.91;5024132;28;20276;-93
2021/08/09 09:57:27;;;;;;;2.85;1.20;;;;;;;27.01;38.97;99811.50;5037074;28;20226;-94
2021/08/09 09:59:58;;;;;;;2.15;1.30;;;;;;;26.83;41.25;99817.28;5020569;28;20671;-93
2021/08/09 10:02:26;;;;;;;2.53;1.33;;;;;;;26.78;41.28;99814.72;5020174;28;20229;-92
2021/08/09 10:04:53;;;;;;;2.20;1.40;;;;;;;26.84;39.82;99814.22;5019486;28;20235;-93
2021/08/09 10:07:23;;;;;;;2.47;1.20;;;;;;;27.34;39.42;99806.28;5037065;28;20301;-90
2021/08/09 10:09:50;;;;;;;2.35;1.17;;;;;;;27.39;39.11;99816.31;5020607;28;20227;-92
2021/08/09 10:12:20;;;;;;;1.58;1.30;;;;;;;27.14;40.40;99812.47;5036478;28;20234;-93
2021/08/09 10:14:47;;;;;;;1.42;1.10;;;;;;;27.22;39.70;99805.31;5020026;28;20232;-92
2021/08/09 10:17:15;;;;;;;1.85;1.50;;;;;;;27.54;37.60;99816.63;5020902;28;20233;-93
2021/08/09 10:19:45;;;;;;;3.95;1.33;;;;;;;27.35;37.47;99810.66;5019078;28;20276;-86
2021/08/09 10:22:12;;;;;;;1.80;1.30;;;;;;;27.71;37.57;99803.97;5035546;28;20287;-90
2021/08/09 10:24:55;;;;;;;2.33;1.27;;;;;;;28.06;37.78;99802.69;5021742;28;20621;-86
2021/08/09 10:27:47;;;;;;;1.30;1.20;;;;;;;28.20;37.94;99813.50;5020128;28;20320;-90
2021/08/09 10:30:24;;;;;;;3.28;1.52;;;;;;;28.00;37.05;99801.25;5052159;28;20233;-87
2021/08/09 10:32:57;;;;;;;2.38;1.10;;;;;;;28.46;37.68;99798.44;5019768;28;20244;-87
2021/08/09 10:35:34;;;;;;;1.55;1.20;;;;;;;28.78;36.65;99802.47;5019554;28;20797;-86
2021/08/09 10:38:19;;;;;;;1.98;1.20;;;;;;;27.86;36.71;99808.91;5035671;28;20238;-86
2021/08/09 10:40:48;;;;;;;1.35;1.20;;;;;;;28.37;36.58;99799.63;5019170;28;20284;-86
2021/08/09 10:43:15;;;;;;;1.25;1.10;;;;;;;28.53;36.16;99792.41;5035392;28;20233;-87
2021/08/09 10:45:44;;;;;;;1.20;1.10;;;;;;;28.73;34.13;99793.59;5019389;28;20651;-88
2021/08/09 10:48:12;;;;;;;1.77;1.40;;;;;;;28.83;35.39;99785.72;5018906;28;20236;-87
2021/08/09 10:50:42;;;;;;;1.73;1.23;;;;;;;29.09;35.52;99790.19;5019185;28;20289;-83
2021/08/09 10:53:24;;;;;;;2.72;1.33;;;;;;;29.13;34.52;99789.19;5052071;28;20287;-85
2021/08/09 10:55:56;;;;;;;3.92;1.30;;;;;;;28.80;35.27;99777.31;5035933;28;20282;-87
2021/08/09 10:58:41;;;;;;;1.20;1.10;;;;;;;28.98;37.33;99789.00;5019018;28;20358;-88
2021/08/09 11:01:09;;;;;;;1.80;1.30;;;;;;;29.29;36.88;99778.34;5036112;28;20230;-85
2021/08/09 11:04:01;;;;;;;2.47;1.30;;;;;;;29.36;35.35;99775.03;5031206;28;20269;-86
2021/08/09 11:06:45;;;;;;;2.70;1.30;;;;;;;29.45;34.78;99768.28;5033035;28;20316;-87
2021/08/09 11:09:33;;;;;;;2.60;1.23;;;;;;;29.68;34.72;99761.19;5033053;28;20230;-88
2021/08/09 11:12:13;;;;;;;1.73;1.40;;;;;;;29.66;36.37;99760.72;5016313;28;20222;-85
2021/08/09 11:17:31;;;;;;;6.05;1.50;;;;;;;29.77;34.54;99764.63;5033000;28;20232;-86
2021/08/09 11:20:21;;;;;;;1.42;1.02;;;;;;;29.93;33.93;99764.00;5032768;28;20230;-85
2021/08/09 11:23:03;;;;;;;2.05;1.20;;;;;;;29.93;33.56;99756.53;5017841;28;20644;-86
2021/08/09 11:25:32;;;;;;;1.10;1.00;;;;;;;29.99;34.83;99755.16;5017458;28;20517;-88
2021/08/09 11:28:04;;;;;;;2.10;1.40;;;;;;;29.89;35.21;99758.38;5033787;28;20234;-87
2021/08/09 11:30:40;;;;;;;1.30;1.20;;;;;;;29.89;35.99;99752.03;5017672;28;20233;-85
2021/08/09 11:33:18;;;;;;;1.35;1.25;;;;;;;29.53;36.97;99745.31;5017998;28;20260;-88
2021/08/09 11:35:46;;;;;;;1.45;1.30;;;;;;;30.07;35.47;99740.41;5018050;28;20729;-86
2021/08/09 11:38:13;;;;;;;2.50;1.33;;;;;;;29.52;35.16;99749.22;5032955;28;20247;-88
2021/08/09 11:40:46;;;;;;;1.42;1.20;;;;;;;29.48;36.66;99740.00;5018041;28;20287;-88
2021/08/09 11:43:15;;;;;;;1.48;1.05;;;;;;;29.76;34.06;99751.19;5034320;28;20257;-87
2021/08/09 11:45:42;;;;;;;2.75;1.27;;;;;;;29.92;34.36;99752.16;5034323;28;20273;-87
2021/08/09 11:48:09;;;;;;;1.95;1.10;;;;;;;29.85;33.86;99742.78;5033755;28;20308;-86
2021/08/09 11:50:38;;;;;;;2.03;1.08;;;;;;;30.14;33.55;99739.84;5034243;28;20249;-86